<?xml version="1.0" encoding="UTF-8" standalone="no" ?>
<gpx xmlns="http://www.topografix.com/GPX/1/1" xmlns:xsi="http://www.w3.org/2001/XMLSchema-instance" xsi:schemaLocation="http://www.topografix.com/GPX/1/1 http://www.topografix.com/GPX/1/1/gpx.xsd" version="1.1" creator="VisuGPX - https://www.visugpx.com">
  <metadata>
    <name>Cassis - Pointe Cacau</name>
    <desc><![CDATA[Facile. Paysages magnifiques. A faire avec des enfants à partir de 4-5 ans.]]></desc>
  </metadata>
  <wpt lat="43.20698" lon="5.51862">
    <ele>22.1</ele>
    <name><![CDATA[0000168]]></name>
    <type><![CDATA[Point de départ]]></type>
  </wpt>
  <wpt lat="43.19715" lon="5.61966">
    <ele>28.7</ele>
    <name><![CDATA[0000169]]></name>
    <type><![CDATA[Point d'arrivée]]></type>
  </wpt>
  <trk>
    <name><![CDATA[2021-03-27 10:39:06]]></name>
    <extensions>
      <line xmlns="http://www.topografix.com/GPX/gpx_style/0/2">
        <color>0000FF</color>
        <width>4</width>
      </line>
    </extensions>
    <trkseg>
      <trkpt lat="43.20698" lon="5.51862">
        <ele>38.48</ele>
        <time>2021-03-27T09:39:04.543Z</time>
      </trkpt>
      <trkpt lat="43.20704" lon="5.51886">
        <ele>30.46</ele>
        <time>2021-03-27T09:40:22.000Z</time>
      </trkpt>
      <trkpt lat="43.20722" lon="5.51886">
        <ele>34.45</ele>
        <time>2021-03-27T09:40:40.000Z</time>
      </trkpt>
      <trkpt lat="43.2074" lon="5.51885">
        <ele>39.18</ele>
        <time>2021-03-27T09:40:59.000Z</time>
      </trkpt>
      <trkpt lat="43.20757" lon="5.51878">
        <ele>34.32</ele>
        <time>2021-03-27T09:41:27.000Z</time>
      </trkpt>
      <trkpt lat="43.20744" lon="5.51895">
        <ele>29.62</ele>
        <time>2021-03-27T09:44:12.000Z</time>
      </trkpt>
      <trkpt lat="43.20761" lon="5.51904">
        <ele>29.39</ele>
        <time>2021-03-27T09:45:17.000Z</time>
      </trkpt>
      <trkpt lat="43.20759" lon="5.51929">
        <ele>27.44</ele>
        <time>2021-03-27T09:46:50.000Z</time>
      </trkpt>
      <trkpt lat="43.20769" lon="5.51951">
        <ele>28.4</ele>
        <time>2021-03-27T09:47:22.000Z</time>
      </trkpt>
      <trkpt lat="43.20784" lon="5.51966">
        <ele>30.42</ele>
        <time>2021-03-27T09:47:43.000Z</time>
      </trkpt>
      <trkpt lat="43.208" lon="5.51979">
        <ele>27.82</ele>
        <time>2021-03-27T09:48:14.000Z</time>
      </trkpt>
      <trkpt lat="43.20813" lon="5.51996">
        <ele>31.72</ele>
        <time>2021-03-27T09:48:33.000Z</time>
      </trkpt>
      <trkpt lat="43.20827" lon="5.52014">
        <ele>32.73</ele>
        <time>2021-03-27T09:48:55.000Z</time>
      </trkpt>
      <trkpt lat="43.2084" lon="5.52032">
        <ele>36.77</ele>
        <time>2021-03-27T09:49:18.000Z</time>
      </trkpt>
      <trkpt lat="43.20845" lon="5.52056">
        <ele>39.62</ele>
        <time>2021-03-27T09:49:44.000Z</time>
      </trkpt>
      <trkpt lat="43.20859" lon="5.52071">
        <ele>42.66</ele>
        <time>2021-03-27T09:50:03.000Z</time>
      </trkpt>
      <trkpt lat="43.20875" lon="5.52085">
        <ele>44.71</ele>
        <time>2021-03-27T09:50:20.000Z</time>
      </trkpt>
      <trkpt lat="43.2089" lon="5.52101">
        <ele>47.1</ele>
        <time>2021-03-27T09:50:40.000Z</time>
      </trkpt>
      <trkpt lat="43.20905" lon="5.52113">
        <ele>47.54</ele>
        <time>2021-03-27T09:50:57.000Z</time>
      </trkpt>
      <trkpt lat="43.2092" lon="5.52128">
        <ele>53.5</ele>
        <time>2021-03-27T09:51:17.000Z</time>
      </trkpt>
      <trkpt lat="43.20935" lon="5.52144">
        <ele>49.42</ele>
        <time>2021-03-27T09:52:05.000Z</time>
      </trkpt>
      <trkpt lat="43.2095" lon="5.52159">
        <ele>48.46</ele>
        <time>2021-03-27T09:52:24.000Z</time>
      </trkpt>
      <trkpt lat="43.20961" lon="5.5218">
        <ele>49.77</ele>
        <time>2021-03-27T09:52:41.000Z</time>
      </trkpt>
      <trkpt lat="43.20973" lon="5.522">
        <ele>52.07</ele>
        <time>2021-03-27T09:53:00.000Z</time>
      </trkpt>
      <trkpt lat="43.20982" lon="5.52221">
        <ele>48.88</ele>
        <time>2021-03-27T09:53:25.000Z</time>
      </trkpt>
      <trkpt lat="43.20994" lon="5.52241">
        <ele>48.9</ele>
        <time>2021-03-27T09:53:46.000Z</time>
      </trkpt>
      <trkpt lat="43.21005" lon="5.52261">
        <ele>50.25</ele>
        <time>2021-03-27T09:54:03.000Z</time>
      </trkpt>
      <trkpt lat="43.21023" lon="5.52271">
        <ele>54.36</ele>
        <time>2021-03-27T09:54:21.000Z</time>
      </trkpt>
      <trkpt lat="43.21034" lon="5.5229">
        <ele>53.02</ele>
        <time>2021-03-27T09:54:38.000Z</time>
      </trkpt>
      <trkpt lat="43.21044" lon="5.52312">
        <ele>50.45</ele>
        <time>2021-03-27T09:54:58.000Z</time>
      </trkpt>
      <trkpt lat="43.2106" lon="5.523">
        <ele>53.33</ele>
        <time>2021-03-27T09:55:32.000Z</time>
      </trkpt>
      <trkpt lat="43.21077" lon="5.52289">
        <ele>53.85</ele>
        <time>2021-03-27T09:55:50.000Z</time>
      </trkpt>
      <trkpt lat="43.21087" lon="5.52309">
        <ele>50.54</ele>
        <time>2021-03-27T09:57:15.000Z</time>
      </trkpt>
      <trkpt lat="43.21101" lon="5.52294">
        <ele>44.79</ele>
        <time>2021-03-27T09:58:06.000Z</time>
      </trkpt>
      <trkpt lat="43.21114" lon="5.52276">
        <ele>37.88</ele>
        <time>2021-03-27T09:58:54.000Z</time>
      </trkpt>
      <trkpt lat="43.21131" lon="5.52268">
        <ele>36.89</ele>
        <time>2021-03-27T10:01:00.000Z</time>
      </trkpt>
      <trkpt lat="43.21143" lon="5.52249">
        <ele>35.04</ele>
        <time>2021-03-27T10:02:33.000Z</time>
      </trkpt>
      <trkpt lat="43.21146" lon="5.52224">
        <ele>29.7</ele>
        <time>2021-03-27T10:03:03.000Z</time>
      </trkpt>
      <trkpt lat="43.21153" lon="5.522">
        <ele>25.63</ele>
        <time>2021-03-27T10:03:26.000Z</time>
      </trkpt>
      <trkpt lat="43.21171" lon="5.52205">
        <ele>25.01</ele>
        <time>2021-03-27T10:04:22.000Z</time>
      </trkpt>
      <trkpt lat="43.21188" lon="5.52214">
        <ele>21.49</ele>
        <time>2021-03-27T10:04:41.000Z</time>
      </trkpt>
      <trkpt lat="43.21205" lon="5.52204">
        <ele>25.77</ele>
        <time>2021-03-27T10:05:31.000Z</time>
      </trkpt>
      <trkpt lat="43.21191" lon="5.52186">
        <ele>18.13</ele>
        <time>2021-03-27T10:07:52.000Z</time>
      </trkpt>
      <trkpt lat="43.21181" lon="5.52166">
        <ele>17.14</ele>
        <time>2021-03-27T10:08:11.000Z</time>
      </trkpt>
      <trkpt lat="43.21171" lon="5.52144">
        <ele>15.46</ele>
        <time>2021-03-27T10:08:30.000Z</time>
      </trkpt>
      <trkpt lat="43.21162" lon="5.52122">
        <ele>12.33</ele>
        <time>2021-03-27T10:08:50.000Z</time>
      </trkpt>
      <trkpt lat="43.21153" lon="5.521">
        <ele>11.78</ele>
        <time>2021-03-27T10:09:10.000Z</time>
      </trkpt>
      <trkpt lat="43.21136" lon="5.52089">
        <ele>9.68</ele>
        <time>2021-03-27T10:09:27.000Z</time>
      </trkpt>
      <trkpt lat="43.21121" lon="5.52076">
        <ele>13.68</ele>
        <time>2021-03-27T10:09:45.000Z</time>
      </trkpt>
      <trkpt lat="43.21106" lon="5.5206">
        <ele>13.22</ele>
        <time>2021-03-27T10:10:08.000Z</time>
      </trkpt>
      <trkpt lat="43.2109" lon="5.52046">
        <ele>14.39</ele>
        <time>2021-03-27T10:10:28.000Z</time>
      </trkpt>
      <trkpt lat="43.21075" lon="5.5203">
        <ele>12.05</ele>
        <time>2021-03-27T10:10:49.000Z</time>
      </trkpt>
      <trkpt lat="43.21061" lon="5.52016">
        <ele>12.25</ele>
        <time>2021-03-27T10:11:11.000Z</time>
      </trkpt>
      <trkpt lat="43.21048" lon="5.51999">
        <ele>9.93</ele>
        <time>2021-03-27T10:11:30.000Z</time>
      </trkpt>
      <trkpt lat="43.21033" lon="5.51983">
        <ele>10.77</ele>
        <time>2021-03-27T10:11:50.000Z</time>
      </trkpt>
      <trkpt lat="43.21017" lon="5.51969">
        <ele>13.29</ele>
        <time>2021-03-27T10:12:11.000Z</time>
      </trkpt>
      <trkpt lat="43.21003" lon="5.51953">
        <ele>13.94</ele>
        <time>2021-03-27T10:12:32.000Z</time>
      </trkpt>
      <trkpt lat="43.20991" lon="5.51933">
        <ele>16.2</ele>
        <time>2021-03-27T10:12:54.000Z</time>
      </trkpt>
      <trkpt lat="43.20977" lon="5.51917">
        <ele>16.1</ele>
        <time>2021-03-27T10:13:14.000Z</time>
      </trkpt>
      <trkpt lat="43.20964" lon="5.51898">
        <ele>13.99</ele>
        <time>2021-03-27T10:13:34.000Z</time>
      </trkpt>
      <trkpt lat="43.20974" lon="5.51919">
        <ele>12.17</ele>
        <time>2021-03-27T10:14:42.000Z</time>
      </trkpt>
      <trkpt lat="43.20986" lon="5.51938">
        <ele>14.22</ele>
        <time>2021-03-27T10:15:07.000Z</time>
      </trkpt>
      <trkpt lat="43.20999" lon="5.51956">
        <ele>14.56</ele>
        <time>2021-03-27T10:15:35.000Z</time>
      </trkpt>
      <trkpt lat="43.20987" lon="5.51936">
        <ele>12.08</ele>
        <time>2021-03-27T10:16:59.000Z</time>
      </trkpt>
      <trkpt lat="43.20978" lon="5.51913">
        <ele>10.87</ele>
        <time>2021-03-27T10:17:18.000Z</time>
      </trkpt>
      <trkpt lat="43.20968" lon="5.51893">
        <ele>11.48</ele>
        <time>2021-03-27T10:17:38.000Z</time>
      </trkpt>
      <trkpt lat="43.20955" lon="5.51875">
        <ele>11.53</ele>
        <time>2021-03-27T10:17:58.000Z</time>
      </trkpt>
      <trkpt lat="43.20943" lon="5.51855">
        <ele>11.58</ele>
        <time>2021-03-27T10:18:32.000Z</time>
      </trkpt>
      <trkpt lat="43.20931" lon="5.51836">
        <ele>11.13</ele>
        <time>2021-03-27T10:18:50.000Z</time>
      </trkpt>
      <trkpt lat="43.20919" lon="5.51817">
        <ele>12.84</ele>
        <time>2021-03-27T10:19:25.000Z</time>
      </trkpt>
      <trkpt lat="43.20907" lon="5.51798">
        <ele>15.36</ele>
        <time>2021-03-27T10:21:02.000Z</time>
      </trkpt>
      <trkpt lat="43.20896" lon="5.51779">
        <ele>13.33</ele>
        <time>2021-03-27T10:21:25.000Z</time>
      </trkpt>
      <trkpt lat="43.20887" lon="5.51757">
        <ele>11.92</ele>
        <time>2021-03-27T10:21:59.000Z</time>
      </trkpt>
      <trkpt lat="43.20875" lon="5.51739">
        <ele>11.49</ele>
        <time>2021-03-27T10:22:21.000Z</time>
      </trkpt>
      <trkpt lat="43.20864" lon="5.51718">
        <ele>14.8</ele>
        <time>2021-03-27T10:23:21.000Z</time>
      </trkpt>
      <trkpt lat="43.20851" lon="5.517">
        <ele>12.15</ele>
        <time>2021-03-27T10:23:45.000Z</time>
      </trkpt>
      <trkpt lat="43.20837" lon="5.51682">
        <ele>12.51</ele>
        <time>2021-03-27T10:24:10.000Z</time>
      </trkpt>
      <trkpt lat="43.20825" lon="5.51662">
        <ele>11.46</ele>
        <time>2021-03-27T10:24:31.000Z</time>
      </trkpt>
      <trkpt lat="43.20812" lon="5.51645">
        <ele>10.72</ele>
        <time>2021-03-27T10:24:51.000Z</time>
      </trkpt>
      <trkpt lat="43.20801" lon="5.51625">
        <ele>11.43</ele>
        <time>2021-03-27T10:25:12.000Z</time>
      </trkpt>
      <trkpt lat="43.20789" lon="5.51606">
        <ele>6.17</ele>
        <time>2021-03-27T10:25:46.000Z</time>
      </trkpt>
      <trkpt lat="43.20773" lon="5.51591">
        <ele>8.65</ele>
        <time>2021-03-27T10:26:10.000Z</time>
      </trkpt>
      <trkpt lat="43.20773" lon="5.51566">
        <ele>11.34</ele>
        <time>2021-03-27T10:27:00.000Z</time>
      </trkpt>
      <trkpt lat="43.20761" lon="5.51547">
        <ele>13.35</ele>
        <time>2021-03-27T10:27:21.000Z</time>
      </trkpt>
      <trkpt lat="43.20754" lon="5.5157">
        <ele>9.41</ele>
        <time>2021-03-27T10:28:40.000Z</time>
      </trkpt>
      <trkpt lat="43.20761" lon="5.51593">
        <ele>10.09</ele>
        <time>2021-03-27T10:29:02.000Z</time>
      </trkpt>
      <trkpt lat="43.20747" lon="5.51575">
        <ele>9.82</ele>
        <time>2021-03-27T10:30:22.000Z</time>
      </trkpt>
      <trkpt lat="43.2074" lon="5.51551">
        <ele>13.03</ele>
        <time>2021-03-27T10:30:44.000Z</time>
      </trkpt>
      <trkpt lat="43.20723" lon="5.51541">
        <ele>7.81</ele>
        <time>2021-03-27T10:31:05.000Z</time>
      </trkpt>
      <trkpt lat="43.2071" lon="5.51523">
        <ele>7.15</ele>
        <time>2021-03-27T10:31:46.000Z</time>
      </trkpt>
      <trkpt lat="43.20695" lon="5.5151">
        <ele>15.89</ele>
        <time>2021-03-27T10:32:07.000Z</time>
      </trkpt>
      <trkpt lat="43.20682" lon="5.51492">
        <ele>15.63</ele>
        <time>2021-03-27T10:32:38.000Z</time>
      </trkpt>
      <trkpt lat="43.20666" lon="5.51479">
        <ele>17.48</ele>
        <time>2021-03-27T10:33:21.000Z</time>
      </trkpt>
      <trkpt lat="43.20654" lon="5.5146">
        <ele>22.83</ele>
        <time>2021-03-27T10:34:14.000Z</time>
      </trkpt>
      <trkpt lat="43.20641" lon="5.51443">
        <ele>29.31</ele>
        <time>2021-03-27T10:34:43.000Z</time>
      </trkpt>
      <trkpt lat="43.20625" lon="5.51432">
        <ele>34.84</ele>
        <time>2021-03-27T10:35:13.000Z</time>
      </trkpt>
      <trkpt lat="43.20608" lon="5.51421">
        <ele>37.77</ele>
        <time>2021-03-27T10:36:45.000Z</time>
      </trkpt>
      <trkpt lat="43.20596" lon="5.51401">
        <ele>37</ele>
        <time>2021-03-27T10:37:07.000Z</time>
      </trkpt>
      <trkpt lat="43.20586" lon="5.51379">
        <ele>36.75</ele>
        <time>2021-03-27T10:40:54.000Z</time>
      </trkpt>
      <trkpt lat="43.20581" lon="5.51355">
        <ele>42.69</ele>
        <time>2021-03-27T10:41:15.000Z</time>
      </trkpt>
      <trkpt lat="43.20587" lon="5.51331">
        <ele>41.13</ele>
        <time>2021-03-27T10:41:33.000Z</time>
      </trkpt>
      <trkpt lat="43.20596" lon="5.51309">
        <ele>38.6</ele>
        <time>2021-03-27T10:41:51.000Z</time>
      </trkpt>
      <trkpt lat="43.206" lon="5.51284">
        <ele>40.83</ele>
        <time>2021-03-27T10:42:14.000Z</time>
      </trkpt>
      <trkpt lat="43.20593" lon="5.51261">
        <ele>42.5</ele>
        <time>2021-03-27T10:42:45.000Z</time>
      </trkpt>
      <trkpt lat="43.20588" lon="5.51236">
        <ele>48.32</ele>
        <time>2021-03-27T10:43:07.000Z</time>
      </trkpt>
      <trkpt lat="43.20576" lon="5.51217">
        <ele>42.55</ele>
        <time>2021-03-27T10:43:23.000Z</time>
      </trkpt>
      <trkpt lat="43.20564" lon="5.51197">
        <ele>44.21</ele>
        <time>2021-03-27T10:43:39.000Z</time>
      </trkpt>
      <trkpt lat="43.20548" lon="5.51184">
        <ele>41.97</ele>
        <time>2021-03-27T10:43:55.000Z</time>
      </trkpt>
      <trkpt lat="43.20532" lon="5.51169">
        <ele>42.96</ele>
        <time>2021-03-27T10:44:20.000Z</time>
      </trkpt>
      <trkpt lat="43.20515" lon="5.51163">
        <ele>37.81</ele>
        <time>2021-03-27T10:44:57.000Z</time>
      </trkpt>
      <trkpt lat="43.20497" lon="5.5116">
        <ele>35.14</ele>
        <time>2021-03-27T10:45:31.000Z</time>
      </trkpt>
      <trkpt lat="43.20478" lon="5.51161">
        <ele>29.88</ele>
        <time>2021-03-27T10:46:11.000Z</time>
      </trkpt>
      <trkpt lat="43.2046" lon="5.51156">
        <ele>27.21</ele>
        <time>2021-03-27T10:46:33.000Z</time>
      </trkpt>
      <trkpt lat="43.20443" lon="5.51167">
        <ele>21.21</ele>
        <time>2021-03-27T10:47:01.000Z</time>
      </trkpt>
      <trkpt lat="43.20425" lon="5.51169">
        <ele>26.24</ele>
        <time>2021-03-27T10:47:32.000Z</time>
      </trkpt>
      <trkpt lat="43.20407" lon="5.5117">
        <ele>23.52</ele>
        <time>2021-03-27T10:48:00.000Z</time>
      </trkpt>
      <trkpt lat="43.20388" lon="5.51177">
        <ele>24.45</ele>
        <time>2021-03-27T10:48:41.000Z</time>
      </trkpt>
      <trkpt lat="43.2037" lon="5.51178">
        <ele>24.51</ele>
        <time>2021-03-27T10:49:06.000Z</time>
      </trkpt>
      <trkpt lat="43.20351" lon="5.51176">
        <ele>23.69</ele>
        <time>2021-03-27T10:49:33.000Z</time>
      </trkpt>
      <trkpt lat="43.20333" lon="5.51175">
        <ele>20.73</ele>
        <time>2021-03-27T10:50:01.000Z</time>
      </trkpt>
      <trkpt lat="43.20315" lon="5.51171">
        <ele>15.89</ele>
        <time>2021-03-27T10:50:31.000Z</time>
      </trkpt>
      <trkpt lat="43.20301" lon="5.51154">
        <ele>16.78</ele>
        <time>2021-03-27T10:57:22.000Z</time>
      </trkpt>
      <trkpt lat="43.20299" lon="5.51179">
        <ele>18.83</ele>
        <time>2021-03-27T11:01:08.000Z</time>
      </trkpt>
      <trkpt lat="43.2029" lon="5.51201">
        <ele>15.53</ele>
        <time>2021-03-27T11:02:32.000Z</time>
      </trkpt>
      <trkpt lat="43.20295" lon="5.51177">
        <ele>17.16</ele>
        <time>2021-03-27T11:06:14.000Z</time>
      </trkpt>
      <trkpt lat="43.20279" lon="5.51165">
        <ele>20.72</ele>
        <time>2021-03-27T11:07:35.000Z</time>
      </trkpt>
      <trkpt lat="43.20262" lon="5.51172">
        <ele>24.58</ele>
        <time>2021-03-27T11:08:17.000Z</time>
      </trkpt>
      <trkpt lat="43.20245" lon="5.51183">
        <ele>31.14</ele>
        <time>2021-03-27T11:08:56.000Z</time>
      </trkpt>
      <trkpt lat="43.20235" lon="5.51163">
        <ele>32.75</ele>
        <time>2021-03-27T11:10:11.000Z</time>
      </trkpt>
      <trkpt lat="43.20229" lon="5.51139">
        <ele>31.88</ele>
        <time>2021-03-27T11:10:41.000Z</time>
      </trkpt>
      <trkpt lat="43.20214" lon="5.51125">
        <ele>33.6</ele>
        <time>2021-03-27T11:11:11.000Z</time>
      </trkpt>
      <trkpt lat="43.20202" lon="5.51106">
        <ele>36.72</ele>
        <time>2021-03-27T11:11:34.000Z</time>
      </trkpt>
      <trkpt lat="43.2019" lon="5.51088">
        <ele>36.02</ele>
        <time>2021-03-27T11:12:02.000Z</time>
      </trkpt>
      <trkpt lat="43.20183" lon="5.51065">
        <ele>40.52</ele>
        <time>2021-03-27T11:12:23.000Z</time>
      </trkpt>
      <trkpt lat="43.20169" lon="5.51049">
        <ele>41.13</ele>
        <time>2021-03-27T11:12:50.000Z</time>
      </trkpt>
      <trkpt lat="43.20153" lon="5.51037">
        <ele>38.4</ele>
        <time>2021-03-27T11:13:16.000Z</time>
      </trkpt>
      <trkpt lat="43.20135" lon="5.51031">
        <ele>40.68</ele>
        <time>2021-03-27T11:13:37.000Z</time>
      </trkpt>
      <trkpt lat="43.20137" lon="5.51056">
        <ele>39.14</ele>
        <time>2021-03-27T11:14:23.000Z</time>
      </trkpt>
      <trkpt lat="43.20119" lon="5.5106">
        <ele>35.65</ele>
        <time>2021-03-27T11:20:01.000Z</time>
      </trkpt>
      <trkpt lat="43.20105" lon="5.51044">
        <ele>30.81</ele>
        <time>2021-03-27T11:20:22.000Z</time>
      </trkpt>
      <trkpt lat="43.20091" lon="5.51027">
        <ele>30.53</ele>
        <time>2021-03-27T11:20:42.000Z</time>
      </trkpt>
      <trkpt lat="43.20075" lon="5.51014">
        <ele>34.08</ele>
        <time>2021-03-27T11:20:59.000Z</time>
      </trkpt>
      <trkpt lat="43.2007" lon="5.5099">
        <ele>33.03</ele>
        <time>2021-03-27T11:21:24.000Z</time>
      </trkpt>
      <trkpt lat="43.20054" lon="5.51003">
        <ele>33.79</ele>
        <time>2021-03-27T11:24:57.000Z</time>
      </trkpt>
      <trkpt lat="43.20041" lon="5.5102">
        <ele>30.45</ele>
        <time>2021-03-27T11:25:17.000Z</time>
      </trkpt>
      <trkpt lat="43.20026" lon="5.51006">
        <ele>28.1</ele>
        <time>2021-03-27T11:25:36.000Z</time>
      </trkpt>
      <trkpt lat="43.2001" lon="5.50993">
        <ele>28.14</ele>
        <time>2021-03-27T11:25:54.000Z</time>
      </trkpt>
      <trkpt lat="43.19992" lon="5.50991">
        <ele>29.16</ele>
        <time>2021-03-27T11:26:16.000Z</time>
      </trkpt>
      <trkpt lat="43.19974" lon="5.5099">
        <ele>27.1</ele>
        <time>2021-03-27T11:26:46.000Z</time>
      </trkpt>
      <trkpt lat="43.19956" lon="5.50984">
        <ele>26.54</ele>
        <time>2021-03-27T11:27:25.000Z</time>
      </trkpt>
      <trkpt lat="43.19938" lon="5.50977">
        <ele>24.98</ele>
        <time>2021-03-27T11:28:09.000Z</time>
      </trkpt>
      <trkpt lat="43.1992" lon="5.50972">
        <ele>20.64</ele>
        <time>2021-03-27T11:28:36.000Z</time>
      </trkpt>
      <trkpt lat="43.19902" lon="5.50967">
        <ele>16.54</ele>
        <time>2021-03-27T11:28:55.000Z</time>
      </trkpt>
      <trkpt lat="43.19884" lon="5.50964">
        <ele>16.78</ele>
        <time>2021-03-27T11:29:12.000Z</time>
      </trkpt>
      <trkpt lat="43.19868" lon="5.50954">
        <ele>24.43</ele>
        <time>2021-03-27T12:01:51.000Z</time>
      </trkpt>
      <trkpt lat="43.19883" lon="5.50967">
        <ele>15.45</ele>
        <time>2021-03-27T12:13:16.000Z</time>
      </trkpt>
      <trkpt lat="43.19888" lon="5.50992">
        <ele>14.51</ele>
        <time>2021-03-27T12:13:44.000Z</time>
      </trkpt>
      <trkpt lat="43.19886" lon="5.51017">
        <ele>13.15</ele>
        <time>2021-03-27T12:14:06.000Z</time>
      </trkpt>
      <trkpt lat="43.19873" lon="5.51036">
        <ele>10.74</ele>
        <time>2021-03-27T12:14:24.000Z</time>
      </trkpt>
      <trkpt lat="43.19866" lon="5.51059">
        <ele>10.38</ele>
        <time>2021-03-27T12:15:17.000Z</time>
      </trkpt>
      <trkpt lat="43.19847" lon="5.51061">
        <ele>6.34</ele>
        <time>2021-03-27T12:16:10.000Z</time>
      </trkpt>
      <trkpt lat="43.19857" lon="5.51083">
        <ele>2.32</ele>
        <time>2021-03-27T12:16:42.000Z</time>
      </trkpt>
      <trkpt lat="43.19872" lon="5.51094">
        <ele>-0.45</ele>
        <time>2021-03-27T12:17:28.000Z</time>
      </trkpt>
      <trkpt lat="43.19891" lon="5.51093">
        <ele>0.59</ele>
        <time>2021-03-27T12:21:40.000Z</time>
      </trkpt>
      <trkpt lat="43.19909" lon="5.51097">
        <ele>2.16</ele>
        <time>2021-03-27T12:22:05.000Z</time>
      </trkpt>
      <trkpt lat="43.19925" lon="5.51108">
        <ele>4.45</ele>
        <time>2021-03-27T12:22:37.000Z</time>
      </trkpt>
      <trkpt lat="43.19943" lon="5.51116">
        <ele>5.94</ele>
        <time>2021-03-27T12:23:05.000Z</time>
      </trkpt>
      <trkpt lat="43.19958" lon="5.51129">
        <ele>10.07</ele>
        <time>2021-03-27T12:24:04.000Z</time>
      </trkpt>
      <trkpt lat="43.19966" lon="5.51151">
        <ele>8.51</ele>
        <time>2021-03-27T12:24:41.000Z</time>
      </trkpt>
      <trkpt lat="43.19983" lon="5.51159">
        <ele>14.9</ele>
        <time>2021-03-27T12:26:51.000Z</time>
      </trkpt>
      <trkpt lat="43.19995" lon="5.51176">
        <ele>17.67</ele>
        <time>2021-03-27T12:27:18.000Z</time>
      </trkpt>
      <trkpt lat="43.20009" lon="5.51193">
        <ele>18.01</ele>
        <time>2021-03-27T12:27:42.000Z</time>
      </trkpt>
      <trkpt lat="43.20025" lon="5.51205">
        <ele>14.27</ele>
        <time>2021-03-27T12:28:43.000Z</time>
      </trkpt>
      <trkpt lat="43.20043" lon="5.51205">
        <ele>14.38</ele>
        <time>2021-03-27T12:34:51.000Z</time>
      </trkpt>
      <trkpt lat="43.20061" lon="5.51206">
        <ele>18.95</ele>
        <time>2021-03-27T12:35:21.000Z</time>
      </trkpt>
      <trkpt lat="43.20079" lon="5.51212">
        <ele>18.21</ele>
        <time>2021-03-27T12:37:26.000Z</time>
      </trkpt>
      <trkpt lat="43.20095" lon="5.51224">
        <ele>20.18</ele>
        <time>2021-03-27T12:37:55.000Z</time>
      </trkpt>
      <trkpt lat="43.20113" lon="5.51219">
        <ele>24.8</ele>
        <time>2021-03-27T12:39:56.000Z</time>
      </trkpt>
      <trkpt lat="43.2013" lon="5.51212">
        <ele>29.34</ele>
        <time>2021-03-27T12:40:36.000Z</time>
      </trkpt>
      <trkpt lat="43.20147" lon="5.51222">
        <ele>27.25</ele>
        <time>2021-03-27T12:43:43.000Z</time>
      </trkpt>
      <trkpt lat="43.20152" lon="5.51198">
        <ele>28.8</ele>
        <time>2021-03-27T12:44:04.000Z</time>
      </trkpt>
      <trkpt lat="43.20166" lon="5.51181">
        <ele>33.77</ele>
        <time>2021-03-27T12:45:57.000Z</time>
      </trkpt>
      <trkpt lat="43.20182" lon="5.51168">
        <ele>38.61</ele>
        <time>2021-03-27T12:46:30.000Z</time>
      </trkpt>
      <trkpt lat="43.20201" lon="5.51167">
        <ele>37.51</ele>
        <time>2021-03-27T12:46:57.000Z</time>
      </trkpt>
      <trkpt lat="43.20219" lon="5.51162">
        <ele>35.73</ele>
        <time>2021-03-27T12:47:23.000Z</time>
      </trkpt>
      <trkpt lat="43.20237" lon="5.51164">
        <ele>35.33</ele>
        <time>2021-03-27T12:48:22.000Z</time>
      </trkpt>
      <trkpt lat="43.20249" lon="5.51182">
        <ele>31.98</ele>
        <time>2021-03-27T12:51:20.000Z</time>
      </trkpt>
      <trkpt lat="43.20267" lon="5.51176">
        <ele>28.51</ele>
        <time>2021-03-27T12:53:03.000Z</time>
      </trkpt>
      <trkpt lat="43.20284" lon="5.51166">
        <ele>21.11</ele>
        <time>2021-03-27T12:54:19.000Z</time>
      </trkpt>
      <trkpt lat="43.20302" lon="5.51168">
        <ele>19.6</ele>
        <time>2021-03-27T12:54:41.000Z</time>
      </trkpt>
      <trkpt lat="43.20319" lon="5.51177">
        <ele>19.8</ele>
        <time>2021-03-27T12:57:13.000Z</time>
      </trkpt>
      <trkpt lat="43.20337" lon="5.51181">
        <ele>22.81</ele>
        <time>2021-03-27T12:58:20.000Z</time>
      </trkpt>
      <trkpt lat="43.20355" lon="5.51184">
        <ele>22.97</ele>
        <time>2021-03-27T12:58:49.000Z</time>
      </trkpt>
      <trkpt lat="43.20374" lon="5.51185">
        <ele>25.47</ele>
        <time>2021-03-27T12:59:16.000Z</time>
      </trkpt>
      <trkpt lat="43.20391" lon="5.51177">
        <ele>24.07</ele>
        <time>2021-03-27T12:59:51.000Z</time>
      </trkpt>
      <trkpt lat="43.20408" lon="5.51169">
        <ele>24.15</ele>
        <time>2021-03-27T13:00:48.000Z</time>
      </trkpt>
      <trkpt lat="43.20426" lon="5.51165">
        <ele>25.09</ele>
        <time>2021-03-27T13:01:45.000Z</time>
      </trkpt>
      <trkpt lat="43.20443" lon="5.51176">
        <ele>23.65</ele>
        <time>2021-03-27T13:06:02.000Z</time>
      </trkpt>
      <trkpt lat="43.20457" lon="5.51161">
        <ele>26.69</ele>
        <time>2021-03-27T13:12:53.000Z</time>
      </trkpt>
      <trkpt lat="43.20475" lon="5.51158">
        <ele>30.77</ele>
        <time>2021-03-27T13:13:35.000Z</time>
      </trkpt>
      <trkpt lat="43.20493" lon="5.51158">
        <ele>35.11</ele>
        <time>2021-03-27T13:14:18.000Z</time>
      </trkpt>
      <trkpt lat="43.20511" lon="5.51163">
        <ele>38</ele>
        <time>2021-03-27T13:14:47.000Z</time>
      </trkpt>
      <trkpt lat="43.20529" lon="5.51166">
        <ele>41.29</ele>
        <time>2021-03-27T13:15:25.000Z</time>
      </trkpt>
      <trkpt lat="43.20542" lon="5.51183">
        <ele>42.23</ele>
        <time>2021-03-27T13:16:19.000Z</time>
      </trkpt>
      <trkpt lat="43.20559" lon="5.51193">
        <ele>44.15</ele>
        <time>2021-03-27T13:16:53.000Z</time>
      </trkpt>
      <trkpt lat="43.20573" lon="5.51211">
        <ele>46.64</ele>
        <time>2021-03-27T13:17:22.000Z</time>
      </trkpt>
      <trkpt lat="43.20586" lon="5.51228">
        <ele>48.65</ele>
        <time>2021-03-27T13:17:44.000Z</time>
      </trkpt>
      <trkpt lat="43.20592" lon="5.51251">
        <ele>47.34</ele>
        <time>2021-03-27T13:18:09.000Z</time>
      </trkpt>
      <trkpt lat="43.20599" lon="5.51274">
        <ele>46.73</ele>
        <time>2021-03-27T13:18:48.000Z</time>
      </trkpt>
      <trkpt lat="43.20597" lon="5.513">
        <ele>43.48</ele>
        <time>2021-03-27T13:19:26.000Z</time>
      </trkpt>
      <trkpt lat="43.20589" lon="5.51323">
        <ele>42.04</ele>
        <time>2021-03-27T13:19:51.000Z</time>
      </trkpt>
      <trkpt lat="43.20583" lon="5.51347">
        <ele>41.4</ele>
        <time>2021-03-27T13:20:42.000Z</time>
      </trkpt>
      <trkpt lat="43.20584" lon="5.51372">
        <ele>40.15</ele>
        <time>2021-03-27T13:21:05.000Z</time>
      </trkpt>
      <trkpt lat="43.20592" lon="5.51396">
        <ele>40.26</ele>
        <time>2021-03-27T13:22:07.000Z</time>
      </trkpt>
      <trkpt lat="43.20605" lon="5.51414">
        <ele>38.33</ele>
        <time>2021-03-27T13:22:30.000Z</time>
      </trkpt>
      <trkpt lat="43.20619" lon="5.51431">
        <ele>35.46</ele>
        <time>2021-03-27T13:22:59.000Z</time>
      </trkpt>
      <trkpt lat="43.20634" lon="5.51444">
        <ele>30.24</ele>
        <time>2021-03-27T13:23:27.000Z</time>
      </trkpt>
      <trkpt lat="43.20649" lon="5.51461">
        <ele>26.53</ele>
        <time>2021-03-27T13:24:06.000Z</time>
      </trkpt>
      <trkpt lat="43.20665" lon="5.51471">
        <ele>22.78</ele>
        <time>2021-03-27T13:24:47.000Z</time>
      </trkpt>
      <trkpt lat="43.20683" lon="5.51476">
        <ele>22.93</ele>
        <time>2021-03-27T13:25:21.000Z</time>
      </trkpt>
      <trkpt lat="43.207" lon="5.51484">
        <ele>21.38</ele>
        <time>2021-03-27T13:25:50.000Z</time>
      </trkpt>
      <trkpt lat="43.20718" lon="5.51492">
        <ele>19.61</ele>
        <time>2021-03-27T13:26:12.000Z</time>
      </trkpt>
      <trkpt lat="43.20733" lon="5.51506">
        <ele>14.92</ele>
        <time>2021-03-27T13:26:40.000Z</time>
      </trkpt>
      <trkpt lat="43.20747" lon="5.51522">
        <ele>12.79</ele>
        <time>2021-03-27T13:27:03.000Z</time>
      </trkpt>
      <trkpt lat="43.20758" lon="5.51543">
        <ele>14.31</ele>
        <time>2021-03-27T13:27:32.000Z</time>
      </trkpt>
      <trkpt lat="43.20767" lon="5.51565">
        <ele>13.88</ele>
        <time>2021-03-27T13:30:02.000Z</time>
      </trkpt>
      <trkpt lat="43.20779" lon="5.51583">
        <ele>14.06</ele>
        <time>2021-03-27T13:30:43.000Z</time>
      </trkpt>
      <trkpt lat="43.2079" lon="5.51603">
        <ele>15.51</ele>
        <time>2021-03-27T13:31:07.000Z</time>
      </trkpt>
      <trkpt lat="43.208" lon="5.51624">
        <ele>14.74</ele>
        <time>2021-03-27T13:32:41.000Z</time>
      </trkpt>
      <trkpt lat="43.20812" lon="5.51642">
        <ele>10.72</ele>
        <time>2021-03-27T13:33:57.000Z</time>
      </trkpt>
      <trkpt lat="43.20825" lon="5.51661">
        <ele>12.05</ele>
        <time>2021-03-27T13:34:21.000Z</time>
      </trkpt>
      <trkpt lat="43.20837" lon="5.51681">
        <ele>12.76</ele>
        <time>2021-03-27T13:34:40.000Z</time>
      </trkpt>
      <trkpt lat="43.20851" lon="5.51698">
        <ele>10.94</ele>
        <time>2021-03-27T13:35:06.000Z</time>
      </trkpt>
      <trkpt lat="43.20864" lon="5.51716">
        <ele>12.24</ele>
        <time>2021-03-27T13:35:26.000Z</time>
      </trkpt>
      <trkpt lat="43.20874" lon="5.51738">
        <ele>12.14</ele>
        <time>2021-03-27T13:35:52.000Z</time>
      </trkpt>
      <trkpt lat="43.20885" lon="5.51757">
        <ele>13.2</ele>
        <time>2021-03-27T13:36:14.000Z</time>
      </trkpt>
      <trkpt lat="43.20889" lon="5.51782">
        <ele>12.75</ele>
        <time>2021-03-27T13:37:31.000Z</time>
      </trkpt>
      <trkpt lat="43.20903" lon="5.51798">
        <ele>10.29</ele>
        <time>2021-03-27T13:37:58.000Z</time>
      </trkpt>
      <trkpt lat="43.20915" lon="5.51818">
        <ele>10.36</ele>
        <time>2021-03-27T13:38:14.000Z</time>
      </trkpt>
      <trkpt lat="43.20923" lon="5.5184">
        <ele>9.24</ele>
        <time>2021-03-27T13:38:33.000Z</time>
      </trkpt>
      <trkpt lat="43.20937" lon="5.51857">
        <ele>7.76</ele>
        <time>2021-03-27T13:38:51.000Z</time>
      </trkpt>
      <trkpt lat="43.20949" lon="5.51875">
        <ele>9.78</ele>
        <time>2021-03-27T13:39:11.000Z</time>
      </trkpt>
      <trkpt lat="43.20961" lon="5.51895">
        <ele>9.88</ele>
        <time>2021-03-27T13:39:33.000Z</time>
      </trkpt>
      <trkpt lat="43.20974" lon="5.51914">
        <ele>9.28</ele>
        <time>2021-03-27T13:40:08.000Z</time>
      </trkpt>
      <trkpt lat="43.20984" lon="5.51933">
        <ele>10.39</ele>
        <time>2021-03-27T13:40:27.000Z</time>
      </trkpt>
      <trkpt lat="43.20998" lon="5.5195">
        <ele>12.67</ele>
        <time>2021-03-27T13:40:49.000Z</time>
      </trkpt>
      <trkpt lat="43.21012" lon="5.51965">
        <ele>13.9</ele>
        <time>2021-03-27T13:41:07.000Z</time>
      </trkpt>
      <trkpt lat="43.21026" lon="5.51982">
        <ele>15.04</ele>
        <time>2021-03-27T13:41:27.000Z</time>
      </trkpt>
      <trkpt lat="43.21041" lon="5.51998">
        <ele>13.72</ele>
        <time>2021-03-27T13:41:46.000Z</time>
      </trkpt>
      <trkpt lat="43.21055" lon="5.52014">
        <ele>13.98</ele>
        <time>2021-03-27T13:42:05.000Z</time>
      </trkpt>
      <trkpt lat="43.21065" lon="5.52034">
        <ele>12.58</ele>
        <time>2021-03-27T13:42:24.000Z</time>
      </trkpt>
      <trkpt lat="43.21075" lon="5.52055">
        <ele>11.62</ele>
        <time>2021-03-27T13:42:43.000Z</time>
      </trkpt>
      <trkpt lat="43.21089" lon="5.52072">
        <ele>12.73</ele>
        <time>2021-03-27T13:43:01.000Z</time>
      </trkpt>
      <trkpt lat="43.21106" lon="5.52083">
        <ele>13.55</ele>
        <time>2021-03-27T13:43:19.000Z</time>
      </trkpt>
      <trkpt lat="43.21122" lon="5.52095">
        <ele>14.21</ele>
        <time>2021-03-27T13:43:53.000Z</time>
      </trkpt>
      <trkpt lat="43.21141" lon="5.52099">
        <ele>14.91</ele>
        <time>2021-03-27T13:44:15.000Z</time>
      </trkpt>
      <trkpt lat="43.21156" lon="5.52113">
        <ele>14.6</ele>
        <time>2021-03-27T13:44:32.000Z</time>
      </trkpt>
      <trkpt lat="43.21166" lon="5.52135">
        <ele>13.91</ele>
        <time>2021-03-27T13:44:51.000Z</time>
      </trkpt>
      <trkpt lat="43.21175" lon="5.52157">
        <ele>16.52</ele>
        <time>2021-03-27T13:45:09.000Z</time>
      </trkpt>
      <trkpt lat="43.21192" lon="5.52169">
        <ele>16.34</ele>
        <time>2021-03-27T13:45:27.000Z</time>
      </trkpt>
      <trkpt lat="43.21208" lon="5.52183">
        <ele>14.32</ele>
        <time>2021-03-27T13:45:53.000Z</time>
      </trkpt>
      <trkpt lat="43.21222" lon="5.522">
        <ele>13.74</ele>
        <time>2021-03-27T13:46:13.000Z</time>
      </trkpt>
      <trkpt lat="43.21203" lon="5.522">
        <ele>14.79</ele>
        <time>2021-03-27T13:50:59.000Z</time>
      </trkpt>
      <trkpt lat="43.21188" lon="5.52215">
        <ele>16.7</ele>
        <time>2021-03-27T13:53:36.000Z</time>
      </trkpt>
      <trkpt lat="43.21171" lon="5.52209">
        <ele>13.15</ele>
        <time>2021-03-27T13:53:56.000Z</time>
      </trkpt>
      <trkpt lat="43.21153" lon="5.52205">
        <ele>14.76</ele>
        <time>2021-03-27T13:54:17.000Z</time>
      </trkpt>
      <trkpt lat="43.21144" lon="5.52227">
        <ele>21.76</ele>
        <time>2021-03-27T13:54:37.000Z</time>
      </trkpt>
      <trkpt lat="43.21144" lon="5.52253">
        <ele>25.95</ele>
        <time>2021-03-27T13:55:01.000Z</time>
      </trkpt>
      <trkpt lat="43.21129" lon="5.52268">
        <ele>26.91</ele>
        <time>2021-03-27T13:56:32.000Z</time>
      </trkpt>
      <trkpt lat="43.21113" lon="5.52278">
        <ele>33.87</ele>
        <time>2021-03-27T13:57:20.000Z</time>
      </trkpt>
      <trkpt lat="43.21102" lon="5.52298">
        <ele>40.01</ele>
        <time>2021-03-27T13:58:03.000Z</time>
      </trkpt>
      <trkpt lat="43.21085" lon="5.52305">
        <ele>44.91</ele>
        <time>2021-03-27T13:59:06.000Z</time>
      </trkpt>
      <trkpt lat="43.21067" lon="5.52299">
        <ele>54.61</ele>
        <time>2021-03-27T14:01:02.000Z</time>
      </trkpt>
      <trkpt lat="43.2105" lon="5.52312">
        <ele>51.89</ele>
        <time>2021-03-27T14:01:21.000Z</time>
      </trkpt>
      <trkpt lat="43.21036" lon="5.52296">
        <ele>50.77</ele>
        <time>2021-03-27T14:01:41.000Z</time>
      </trkpt>
      <trkpt lat="43.21023" lon="5.52277">
        <ele>44.95</ele>
        <time>2021-03-27T14:02:09.000Z</time>
      </trkpt>
      <trkpt lat="43.21014" lon="5.52256">
        <ele>44.42</ele>
        <time>2021-03-27T14:02:27.000Z</time>
      </trkpt>
      <trkpt lat="43.21002" lon="5.52235">
        <ele>43.08</ele>
        <time>2021-03-27T14:02:43.000Z</time>
      </trkpt>
      <trkpt lat="43.2099" lon="5.52215">
        <ele>44.6</ele>
        <time>2021-03-27T14:02:59.000Z</time>
      </trkpt>
      <trkpt lat="43.20978" lon="5.52196">
        <ele>45.41</ele>
        <time>2021-03-27T14:03:15.000Z</time>
      </trkpt>
      <trkpt lat="43.20968" lon="5.52175">
        <ele>46.03</ele>
        <time>2021-03-27T14:03:34.000Z</time>
      </trkpt>
      <trkpt lat="43.20957" lon="5.52155">
        <ele>44.79</ele>
        <time>2021-03-27T14:03:51.000Z</time>
      </trkpt>
      <trkpt lat="43.20944" lon="5.52138">
        <ele>42.81</ele>
        <time>2021-03-27T14:04:08.000Z</time>
      </trkpt>
      <trkpt lat="43.20929" lon="5.52124">
        <ele>42.96</ele>
        <time>2021-03-27T14:04:27.000Z</time>
      </trkpt>
      <trkpt lat="43.20914" lon="5.52109">
        <ele>42.12</ele>
        <time>2021-03-27T14:04:47.000Z</time>
      </trkpt>
      <trkpt lat="43.20898" lon="5.52096">
        <ele>39.75</ele>
        <time>2021-03-27T14:05:04.000Z</time>
      </trkpt>
      <trkpt lat="43.20884" lon="5.5208">
        <ele>36.4</ele>
        <time>2021-03-27T14:05:26.000Z</time>
      </trkpt>
      <trkpt lat="43.20869" lon="5.52066">
        <ele>38.72</ele>
        <time>2021-03-27T14:05:48.000Z</time>
      </trkpt>
      <trkpt lat="43.20854" lon="5.52051">
        <ele>37.6</ele>
        <time>2021-03-27T14:06:09.000Z</time>
      </trkpt>
      <trkpt lat="43.20841" lon="5.52034">
        <ele>32.49</ele>
        <time>2021-03-27T14:06:31.000Z</time>
      </trkpt>
      <trkpt lat="43.20829" lon="5.52015">
        <ele>28.51</ele>
        <time>2021-03-27T14:06:50.000Z</time>
      </trkpt>
      <trkpt lat="43.20815" lon="5.51998">
        <ele>26.57</ele>
        <time>2021-03-27T14:07:07.000Z</time>
      </trkpt>
      <trkpt lat="43.208" lon="5.51985">
        <ele>23.77</ele>
        <time>2021-03-27T14:07:27.000Z</time>
      </trkpt>
      <trkpt lat="43.20787" lon="5.51967">
        <ele>22.98</ele>
        <time>2021-03-27T14:08:56.000Z</time>
      </trkpt>
      <trkpt lat="43.20771" lon="5.51953">
        <ele>22.52</ele>
        <time>2021-03-27T14:09:38.000Z</time>
      </trkpt>
      <trkpt lat="43.20759" lon="5.51935">
        <ele>23.08</ele>
        <time>2021-03-27T14:10:02.000Z</time>
      </trkpt>
      <trkpt lat="43.20745" lon="5.51918">
        <ele>20.93</ele>
        <time>2021-03-27T14:10:55.000Z</time>
      </trkpt>
      <trkpt lat="43.20729" lon="5.51905">
        <ele>20.2</ele>
        <time>2021-03-27T14:11:13.000Z</time>
      </trkpt>
      <trkpt lat="43.20712" lon="5.51894">
        <ele>18.59</ele>
        <time>2021-03-27T14:11:31.000Z</time>
      </trkpt>
      <trkpt lat="43.20696" lon="5.51885">
        <ele>15.14</ele>
        <time>2021-03-27T14:12:29.000Z</time>
      </trkpt>
    </trkseg>
  </trk>
</gpx>